createdAt,value
2023-01-29T00:01:26.680Z,9.98
2023-01-29T00:05:28.827Z,9.52
2023-01-29T00:09:31.969Z,8.48
2023-01-29T00:13:34.610Z,9.02
2023-01-29T00:17:36.562Z,9.23
2023-01-29T00:21:38.577Z,10.25
2023-01-29T00:25:40.441Z,10.48
2023-01-29T00:29:42.359Z,10.63
2023-01-29T00:33:44.701Z,10.93
2023-01-29T00:37:47.031Z,10.95
2023-01-29T00:42:07.462Z,10.68
2023-01-29T00:46:11.552Z,10.68
2023-01-29T00:50:13.653Z,10.50
2023-01-29T00:54:15.675Z,10.70
2023-01-29T00:58:22.458Z,9.30
2023-01-29T01:02:43.231Z,8.98
2023-01-29T01:06:45.224Z,11.00
2023-01-29T01:10:47.244Z,11.18
2023-01-29T01:14:49.707Z,10.82
2023-01-29T01:18:51.633Z,9.20
2023-01-29T01:22:54.374Z,9.98
2023-01-29T01:26:56.503Z,10.00
2023-01-29T01:31:07.714Z,9.10
2023-01-29T01:35:11.194Z,9.40
2023-01-29T01:39:13.447Z,8.32
2023-01-29T01:43:15.691Z,8.63
2023-01-29T01:47:21.679Z,9.00
2023-01-29T01:51:26.333Z,9.30
2023-01-29T01:55:31.449Z,7.80
2023-01-29T01:59:34.107Z,8.98
2023-01-29T02:04:09.022Z,7.57
2023-01-29T02:08:30.889Z,8.43
2023-01-29T02:12:33.204Z,8.00
2023-01-29T02:16:36.810Z,7.75
2023-01-29T02:20:43.915Z,8.55
2023-01-29T02:24:59.838Z,8.53
2023-01-29T02:29:25.174Z,8.52
2023-01-29T02:34:06.537Z,9.15
2023-01-29T02:38:18.105Z,8.20
2023-01-29T02:42:40.077Z,10.27
2023-01-29T02:47:00.489Z,10.75
2023-01-29T02:51:39.936Z,10.68
2023-01-29T02:55:51.074Z,9.90
2023-01-29T03:00:02.877Z,15.45
2023-01-29T03:04:11.803Z,19.70
2023-01-29T03:08:20.489Z,35.78
2023-01-29T03:12:34.112Z,36.28
2023-01-29T03:16:49.297Z,43.65
2023-01-29T03:20:58.587Z,27.90
2023-01-29T03:25:21.541Z,18.17
2023-01-29T03:29:42.806Z,22.27
2023-01-29T03:33:54.631Z,19.25
2023-01-29T03:37:56.940Z,19.98
2023-01-29T03:42:37.262Z,20.35
2023-01-29T03:46:52.918Z,25.17
2023-01-29T03:51:21.214Z,26.70
2023-01-29T03:55:35.417Z,23.73
2023-01-29T03:59:46.325Z,18.70
2023-01-29T04:04:17.906Z,18.52
2023-01-29T04:08:28.872Z,17.80
2023-01-29T04:13:02.206Z,17.45
2023-01-29T04:17:25.708Z,23.65
2023-01-29T04:21:37.591Z,18.83
2023-01-29T04:25:46.823Z,14.15
2023-01-29T04:30:07.610Z,12.80
2023-01-29T04:34:29.205Z,19.92
2023-01-29T04:38:51.169Z,13.45
2023-01-29T04:43:34.291Z,16.50
2023-01-29T04:47:57.555Z,15.07
2023-01-29T04:52:14.385Z,14.73
2023-01-29T04:56:35.425Z,13.90
2023-01-29T05:00:43.137Z,12.30
2023-01-29T05:04:47.495Z,13.65
2023-01-29T05:08:51.188Z,13.75
2023-01-29T05:13:06.430Z,12.23
2023-01-29T05:17:17.723Z,13.32
2023-01-29T05:21:23.001Z,13.15
2023-01-29T05:25:32.082Z,12.48
2023-01-29T05:29:33.727Z,13.65
2023-01-29T05:33:35.715Z,12.13
2023-01-29T05:37:38.057Z,14.10
2023-01-29T05:41:40.098Z,14.50
2023-01-29T05:45:42.301Z,13.80
2023-01-29T05:49:44.223Z,12.65
2023-01-29T05:53:46.092Z,14.82
2023-01-29T05:57:48.041Z,13.45
2023-01-29T06:01:50.106Z,13.90
2023-01-29T06:05:52.016Z,13.65
2023-01-29T06:09:53.973Z,14.38
2023-01-29T06:13:55.938Z,12.95
2023-01-29T06:17:57.875Z,13.45
2023-01-29T06:22:00.290Z,13.27
2023-01-29T06:26:04.776Z,13.95
2023-01-29T06:30:07.468Z,12.60
2023-01-29T06:34:09.848Z,13.38
2023-01-29T06:38:11.774Z,14.70
2023-01-29T06:42:13.855Z,13.98
2023-01-29T06:46:15.845Z,14.43
2023-01-29T06:50:18.351Z,13.73
2023-01-29T06:54:20.453Z,14.90
2023-01-29T06:58:22.522Z,14.40
2023-01-29T07:02:24.524Z,14.40
2023-01-29T07:06:30.111Z,14.48
2023-01-29T07:10:32.498Z,14.32
2023-01-29T07:14:34.417Z,14.70
2023-01-29T07:18:37.122Z,13.85
2023-01-29T07:22:39.185Z,28.98
2023-01-29T07:26:41.109Z,39.85
2023-01-29T07:30:43.074Z,53.28
2023-01-29T07:34:45.106Z,23.40
2023-01-29T07:38:51.167Z,39.25
2023-01-29T07:43:01.509Z,17.75
2023-01-29T07:47:03.525Z,24.08
2023-01-29T07:51:06.010Z,15.27
2023-01-29T07:55:08.453Z,17.30
2023-01-29T07:59:10.435Z,16.67
2023-01-29T08:03:16.200Z,13.20
2023-01-29T08:07:18.256Z,17.45
2023-01-29T08:11:20.310Z,20.42
2023-01-29T08:15:23.036Z,15.73
2023-01-29T08:19:25.035Z,17.55
2023-01-29T08:23:27.264Z,14.35
2023-01-29T08:27:29.252Z,16.10
2023-01-29T08:31:31.392Z,13.27
2023-01-29T08:35:33.327Z,16.00
2023-01-29T08:39:35.374Z,13.32
2023-01-29T08:43:37.522Z,15.98
2023-01-29T08:47:45.520Z,17.00
2023-01-29T08:51:47.551Z,18.45
2023-01-29T08:55:49.462Z,15.90
2023-01-29T08:59:51.469Z,20.23
2023-01-29T09:03:53.456Z,13.90
2023-01-29T09:07:58.829Z,17.55
2023-01-29T09:12:00.872Z,15.52
2023-01-29T09:16:04.270Z,14.63
2023-01-29T09:20:07.489Z,15.48
2023-01-29T09:24:10.759Z,16.15
2023-01-29T09:28:12.838Z,15.45
2023-01-29T09:32:16.844Z,14.07
2023-01-29T09:36:21.652Z,13.93
2023-01-29T09:40:41.792Z,15.65
2023-01-29T09:45:17.754Z,17.40
2023-01-29T09:49:43.239Z,14.77
2023-01-29T09:53:57.309Z,14.23
2023-01-29T09:58:19.171Z,15.00
2023-01-29T10:02:29.548Z,15.98
2023-01-29T10:06:45.699Z,15.27
2023-01-29T10:11:24.788Z,16.67
2023-01-29T10:15:45.162Z,17.88
2023-01-29T10:20:05.447Z,17.45
2023-01-29T10:24:17.879Z,16.90
2023-01-29T10:28:46.005Z,15.68
2023-01-29T10:32:50.104Z,14.30
2023-01-29T10:36:55.026Z,13.40
2023-01-29T10:41:17.130Z,16.10
2023-01-29T10:45:30.300Z,26.40
2023-01-29T10:49:59.107Z,23.55
2023-01-29T10:54:27.594Z,19.30
2023-01-29T10:58:46.619Z,22.02
2023-01-29T11:02:51.257Z,18.50
2023-01-29T11:06:53.649Z,19.55
2023-01-29T11:11:08.637Z,23.38
2023-01-29T11:15:27.062Z,20.27
2023-01-29T11:19:48.736Z,17.23
2023-01-29T11:24:05.307Z,22.88
2023-01-29T11:28:10.442Z,19.55
2023-01-29T11:32:26.225Z,21.33
2023-01-29T11:36:33.041Z,16.15
2023-01-29T11:40:38.411Z,22.48
2023-01-29T11:44:40.325Z,22.05
2023-01-29T11:49:02.431Z,20.05
2023-01-29T11:53:23.508Z,21.95
2023-01-29T11:57:35.665Z,19.07
2023-01-29T12:01:41.287Z,18.67
2023-01-29T12:05:55.354Z,19.48
2023-01-29T12:09:59.732Z,16.23
2023-01-29T12:14:04.919Z,20.83
2023-01-29T12:18:43.506Z,21.77
2023-01-29T12:23:14.453Z,19.67
2023-01-29T12:27:41.811Z,19.00
2023-01-29T12:31:53.257Z,22.45
2023-01-29T12:36:02.877Z,44.03
2023-01-29T12:40:13.547Z,20.58
2023-01-29T12:44:23.130Z,21.70
2023-01-29T12:48:29.452Z,22.25
2023-01-29T12:53:01.032Z,23.08
2023-01-29T12:57:08.677Z,20.58
2023-01-29T13:01:27.108Z,16.67
2023-01-29T13:05:36.621Z,21.10
2023-01-29T13:09:42.034Z,20.48
2023-01-29T13:13:54.069Z,22.83
2023-01-29T13:18:07.153Z,21.45
2023-01-29T13:22:19.492Z,22.88
2023-01-29T13:26:23.029Z,27.70
2023-01-29T13:30:29.135Z,25.48
2023-01-29T13:34:34.689Z,26.20
2023-01-29T13:38:36.740Z,27.38
2023-01-29T13:42:50.092Z,25.27
2023-01-29T13:47:05.229Z,24.17
2023-01-29T13:51:17.971Z,25.58
2023-01-29T13:55:30.963Z,26.40
2023-01-29T13:59:54.583Z,25.92
2023-01-29T14:04:04.877Z,25.02
2023-01-29T14:08:36.099Z,25.63
2023-01-29T14:12:39.840Z,24.67
2023-01-29T14:16:42.087Z,24.77
2023-01-29T14:20:46.817Z,27.42
2023-01-29T14:24:50.324Z,32.72
2023-01-29T14:29:18.766Z,30.85
2023-01-29T14:33:41.204Z,31.63
2023-01-29T14:37:48.310Z,33.60
2023-01-29T14:41:52.522Z,31.70
2023-01-29T14:45:54.647Z,35.10
2023-01-29T14:49:59.012Z,35.88
2023-01-29T14:54:20.955Z,34.03
2023-01-29T14:58:31.081Z,34.67
2023-01-29T15:02:45.324Z,30.02
2023-01-29T15:06:53.010Z,30.67
2023-01-29T15:11:16.145Z,32.50
2023-01-29T15:15:54.251Z,35.05
2023-01-29T15:19:57.662Z,34.63
2023-01-29T15:24:07.216Z,31.20
2023-01-29T15:28:11.085Z,28.25
2023-01-29T15:32:35.181Z,30.35
2023-01-29T15:36:37.318Z,27.02
2023-01-29T15:40:39.359Z,30.73
2023-01-29T15:44:46.257Z,29.45
2023-01-29T15:48:49.824Z,33.63
2023-01-29T15:52:53.997Z,28.83
2023-01-29T15:56:56.170Z,33.13
2023-01-29T16:01:00.018Z,30.73
2023-01-29T16:05:03.775Z,29.58
2023-01-29T16:09:07.133Z,33.33
2023-01-29T16:13:22.244Z,32.90
2023-01-29T16:17:35.301Z,37.92
2023-01-29T16:21:41.478Z,35.83
2023-01-29T16:25:43.649Z,37.33
2023-01-29T16:29:47.073Z,38.13
2023-01-29T16:33:49.606Z,43.08
2023-01-29T16:37:51.938Z,41.13
2023-01-29T16:42:27.680Z,41.38
2023-01-29T16:46:37.924Z,42.50
2023-01-29T16:50:53.906Z,42.35
2023-01-29T16:55:13.186Z,41.03
2023-01-29T16:59:20.927Z,41.88
2023-01-29T17:03:25.997Z,47.20
2023-01-29T17:07:29.156Z,45.58
2023-01-29T17:11:37.819Z,46.90
2023-01-29T17:15:45.841Z,50.17
2023-01-29T17:19:47.855Z,53.03
2023-01-29T17:23:50.043Z,51.92
2023-01-29T17:27:52.402Z,51.67
2023-01-29T17:31:56.088Z,49.40
2023-01-29T17:35:58.297Z,49.97
2023-01-29T17:40:01.256Z,52.60
2023-01-29T17:44:04.434Z,49.30
2023-01-29T17:48:13.988Z,51.75
2023-01-29T17:52:16.046Z,60.42
2023-01-29T17:56:23.504Z,63.53
2023-01-29T18:00:25.825Z,52.53
2023-01-29T18:04:27.984Z,61.25
2023-01-29T18:08:33.212Z,55.88
2023-01-29T18:12:35.271Z,57.58
2023-01-29T18:16:37.516Z,63.05
2023-01-29T18:20:40.311Z,55.67
2023-01-29T18:24:42.301Z,47.88
2023-01-29T18:28:44.342Z,48.38
2023-01-29T18:32:47.581Z,48.03
2023-01-29T18:36:50.226Z,54.17
2023-01-29T18:40:52.260Z,97.65
2023-01-29T18:44:54.307Z,60.83
2023-01-29T18:48:56.595Z,48.40
2023-01-29T18:52:58.876Z,53.83
2023-01-29T18:57:13.407Z,56.35
2023-01-29T19:01:16.586Z,51.78
2023-01-29T19:05:22.765Z,52.83
2023-01-29T19:09:25.991Z,48.45
2023-01-29T19:13:32.492Z,59.00
2023-01-29T19:17:34.551Z,48.63
2023-01-29T19:21:37.216Z,49.72
2023-01-29T19:25:39.767Z,50.05
2023-01-29T19:29:41.769Z,46.30
2023-01-29T19:33:43.838Z,51.72
2023-01-29T19:37:46.351Z,50.35
2023-01-29T19:41:48.271Z,46.95
2023-01-29T19:45:58.060Z,48.55
2023-01-29T19:50:00.111Z,50.42
2023-01-29T19:54:02.619Z,50.22
2023-01-29T19:58:04.759Z,49.65
2023-01-29T20:02:06.867Z,52.53
2023-01-29T20:06:08.978Z,46.70
2023-01-29T20:10:17.360Z,45.00
2023-01-29T20:14:19.800Z,44.20
2023-01-29T20:18:21.852Z,46.03
2023-01-29T20:22:25.963Z,47.15
2023-01-29T20:26:28.048Z,47.42
2023-01-29T20:30:30.231Z,47.05
2023-01-29T20:34:32.217Z,44.47
2023-01-29T20:38:34.758Z,45.88
2023-01-29T20:42:40.425Z,45.38
2023-01-29T20:46:42.568Z,41.40
2023-01-29T20:50:44.795Z,52.90
2023-01-29T20:54:46.820Z,45.83
2023-01-29T20:58:48.892Z,46.67
2023-01-29T21:02:50.875Z,42.70
2023-01-29T21:06:52.932Z,41.22
2023-01-29T21:10:55.997Z,41.92
2023-01-29T21:14:57.960Z,43.78
2023-01-29T21:19:00.073Z,45.30
2023-01-29T21:23:04.724Z,47.17
2023-01-29T21:27:09.019Z,47.15
2023-01-29T21:31:14.422Z,48.65
2023-01-29T21:35:16.408Z,47.60
2023-01-29T21:39:20.725Z,48.63
2023-01-29T21:43:22.707Z,46.03
2023-01-29T21:47:24.780Z,46.95
2023-01-29T21:51:26.802Z,43.92
2023-01-29T21:55:28.926Z,52.67
2023-01-29T21:59:32.351Z,44.08
2023-01-29T22:03:34.465Z,45.63
2023-01-29T22:07:37.581Z,46.35
2023-01-29T22:11:41.547Z,45.58
2023-01-29T22:15:43.518Z,46.55
2023-01-29T22:19:46.484Z,42.92
2023-01-29T22:23:49.499Z,57.08
2023-01-29T22:27:51.725Z,43.22
2023-01-29T22:31:53.750Z,44.45
2023-01-29T22:35:56.596Z,56.67
2023-01-29T22:39:58.577Z,43.97
2023-01-29T22:44:00.932Z,49.78
2023-01-29T22:48:02.984Z,51.83
2023-01-29T22:52:11.347Z,49.42
2023-01-29T22:56:13.382Z,48.38
2023-01-29T23:00:16.344Z,47.85
2023-01-29T23:04:18.598Z,49.55
2023-01-29T23:08:20.861Z,51.40
2023-01-29T23:12:22.967Z,54.67
2023-01-29T23:16:28.009Z,47.60
2023-01-29T23:20:30.288Z,46.10
2023-01-29T23:24:32.594Z,47.30
2023-01-29T23:28:34.554Z,52.25
2023-01-29T23:32:36.584Z,46.92
2023-01-29T23:36:38.583Z,47.15
2023-01-29T23:40:40.194Z,45.30
2023-01-29T23:44:42.310Z,47.67
2023-01-29T23:48:44.307Z,47.60
2023-01-29T23:52:46.300Z,42.50
2023-01-29T23:56:48.321Z,43.17
